Airfield :
LOGIN :

Register | Disclaimer

   EN    FR    IT 

 










Legend :    VFR   Marginal VFR   IFR   Intensive IFR   Very Intensive IFR
Visi :
Ceiling :
>= 8 km
>= 3000ft
5 to 8 km
1000 to 3000 ft
1500m to 5 km
500 to 1000 ft
800 to 1500m
200 to 500 ft
< 800m
< 200 ft
Symbols :   Thunderstorms  Fog  Heavy snow  Heavy precipitations  Wind > 20 kt
SIGMETs :     Misc.  Thunderstorms  Icing  Turbulence  Mountain Waves  Volcanic Ashes






- Airport Elevation : 622 ft
- IATA code : BRS


EGGD - Bristol Int.

CURRENT METAR :
  • 192050Z AUTO 08005KT 3200 RA SCT007/// BKN019/// //////TCU 12/12 Q1010

EXPIRED METARs :
  • 192020Z AUTO 07006KT 4300 RA BKN007/// OVC015/// //////TCU 13/12 Q1010
  • 191950Z AUTO 09007KT 7000 -RA BKN009 OVC013 13/12 Q1010
  • 191920Z AUTO 06008KT 9000 -RA BKN011 OVC015 13/12 Q1010
  • 191850Z AUTO 06007KT 9999 -RA BKN008 OVC014 13/12 Q1010
  • 191820Z AUTO 09009KT 9999 -RA BKN011 OVC016 13/12 Q1011

TAF AMD TAF EGGD
Valid from the 19 at 20:00 until the 20 at 18:00 UTC


192058Z 1920/2018 09006KT 9999 BKN016
PROB40
TEMPO 1920/1924 3000 +RA BKN007
BECMG 2000/2003 BKN008
TEMPO 2000/2006 4000 -RADZ BKN004
PROB30
TEMPO 2000/2008 BKN001
BECMG 2009/2012 BKN020
PROB40
TEMPO 2012/2018 4000 SHRA BKN005
ATIS : +44 1275 473 666



MET'MAP, your aeronautical weather chart ! - Copyright ORBIFLY December 2007 - Disclaimer

ORBIFLY MET'MAP TEAM :

Programming & Development : Alexandra Zaïnal
Concept & original design : Baudouin d'Aumeries
Assistance for programming : Marc-Olivier Méhu
Technical & hardware support : Manuel Goepfert

Contact : metmap@orbifly.com




SOURCES & CREDITS :

   NOAA